Aérodrome :
LOGIN :

S'inscrire | Disclaimer

   EN    FR    IT 

 










Légende :    VFR   VFR Marginal   IFR   IFR Intensif   IFR Très Intensif
Visi : 
Plafond : 
>= 8 km
>= 3000ft
5 à 8 km
1000 à 3000 ft
1500m à 5 km
500 à 1000 ft
800 à 1500m
200 à 500 ft
< 800m
< 200 ft
Symboles :   Orages  Brouillard  Fortes neiges  Fortes précipitations  Vent > 20 kt
SIGMETs :   Divers  Orages  Givrage  Turbulence  Onde Orograph.  Cendres Volcan.







- Altitude de l'aérodrome : 239 ft
- Code IATA : VRN


LIPX - Villafranca Int. Verona

DERNIER METAR :
  • 222020Z 36009KT 9999 SCT030 BKN050 05/01 Q1009

METARs EXPIRÉS :
  • 221950Z 02009KT 9999 -DZ SCT030 BKN050 05/01 Q1009
  • 221920Z 05010KT 9999 -DZ SCT025 BKN060 05/01 Q1009
  • 221850Z 07009KT 9999 SCT025 BKN060 05/01 Q1009
  • 221820Z 07010KT 050V110 9999 SCT030 BKN060 05/01 Q1009
  • 221750Z 07010KT 9999 SCT030 BKN060 05/01 Q1009

TAF TAF LIPX
Valide du 22 à 18h jusqu'au 23 à 03h UTC


221700Z 2218/2303 08008KT 7000 BKN020 BKN060
TEMPO 2218/2303 3000 RA
Pas de NOTAMs connus pour ce terrain.



MET'MAP, la Météo Aéronautique d'un coup d'oeil ! - Copyright ORBIFLY Décembre 2007 - Disclaimer

ORBIFLY MET'MAP TEAM :

Programmation & Développement : Alexandra Zaïnal
Conception & Développement : Baudouin d'Aumeries
Co-Programmation & Développement : Marc-Olivier Méhu
Soutien technique & logistique : Manuel Goepfert

Contact : metmap@orbifly.com




SOURCES & CREDITS :

   NOAA